sensor_id;sensor_type;location;lat;lon;timestamp;temperature;humidity
37340;DHT22;23223;51.006;7.610;2023-08-07T00:00:13;12.90;99.90
37340;DHT22;23223;51.006;7.610;2023-08-07T00:02:38;12.90;99.90
37340;DHT22;23223;51.006;7.610;2023-08-07T00:05:05;12.90;99.90
37340;DHT22;23223;51.006;7.610;2023-08-07T00:07:31;12.90;99.90
37340;DHT22;23223;51.006;7.610;2023-08-07T00:09:57;12.90;99.90
37340;DHT22;23223;51.006;7.610;2023-08-07T00:12:22;12.90;99.90
37340;DHT22;23223;51.006;7.610;2023-08-07T00:14:50;12.90;99.90
37340;DHT22;23223;51.006;7.610;2023-08-07T00:17:15;12.80;99.90
37340;DHT22;23223;51.006;7.610;2023-08-07T00:19:41;12.90;99.90
37340;DHT22;23223;51.006;7.610;2023-08-07T00:22:06;12.90;99.90
37340;DHT22;23223;51.006;7.610;2023-08-07T00:24:32;12.90;99.90
37340;DHT22;23223;51.006;7.610;2023-08-07T00:26:58;12.90;99.90
37340;DHT22;23223;51.006;7.610;2023-08-07T00:29:23;12.80;99.90
37340;DHT22;23223;51.006;7.610;2023-08-07T00:31:49;12.80;99.90
37340;DHT22;23223;51.006;7.610;2023-08-07T00:34:14;12.80;99.90
37340;DHT22;23223;51.006;7.610;2023-08-07T00:36:40;13.00;99.90
37340;DHT22;23223;51.006;7.610;2023-08-07T00:39:05;13.00;99.90
37340;DHT22;23223;51.006;7.610;2023-08-07T00:41:33;13.00;99.90
37340;DHT22;23223;51.006;7.610;2023-08-07T00:43:58;13.00;99.90
37340;DHT22;23223;51.006;7.610;2023-08-07T00:46:24;13.00;99.90
37340;DHT22;23223;51.006;7.610;2023-08-07T00:48:51;13.00;99.90
37340;DHT22;23223;51.006;7.610;2023-08-07T00:51:17;13.00;99.90
37340;DHT22;23223;51.006;7.610;2023-08-07T00:53:43;12.90;99.90
37340;DHT22;23223;51.006;7.610;2023-08-07T00:56:08;12.90;99.90
37340;DHT22;23223;51.006;7.610;2023-08-07T00:58:34;12.90;99.90
37340;DHT22;23223;51.006;7.610;2023-08-07T01:01:00;12.80;99.90
37340;DHT22;23223;51.006;7.610;2023-08-07T01:03:25;12.80;99.90
37340;DHT22;23223;51.006;7.610;2023-08-07T01:05:51;12.70;99.90
37340;DHT22;23223;51.006;7.610;2023-08-07T01:08:17;12.70;99.90
37340;DHT22;23223;51.006;7.610;2023-08-07T01:13:35;12.70;99.90
37340;DHT22;23223;51.006;7.610;2023-08-07T01:16:10;12.80;99.90
37340;DHT22;23223;51.006;7.610;2023-08-07T01:18:38;12.80;99.90
37340;DHT22;23223;51.006;7.610;2023-08-07T01:21:05;12.80;99.90
37340;DHT22;23223;51.006;7.610;2023-08-07T01:23:30;12.90;99.90
37340;DHT22;23223;51.006;7.610;2023-08-07T01:25:56;12.90;99.90
37340;DHT22;23223;51.006;7.610;2023-08-07T01:28:27;12.80;99.90
37340;DHT22;23223;51.006;7.610;2023-08-07T01:30:59;12.80;99.90
37340;DHT22;23223;51.006;7.610;2023-08-07T01:33:37;12.70;99.90
37340;DHT22;23223;51.006;7.610;2023-08-07T01:36:05;12.60;99.90
37340;DHT22;23223;51.006;7.610;2023-08-07T01:38:32;12.70;99.90
37340;DHT22;23223;51.006;7.610;2023-08-07T01:41:00;12.60;99.90
37340;DHT22;23223;51.006;7.610;2023-08-07T01:43:26;12.70;99.90
37340;DHT22;23223;51.006;7.610;2023-08-07T01:45:52;12.60;99.90
37340;DHT22;23223;51.006;7.610;2023-08-07T01:48:18;12.50;99.90
37340;DHT22;23223;51.006;7.610;2023-08-07T01:50:43;12.60;99.90
37340;DHT22;23223;51.006;7.610;2023-08-07T01:53:09;12.60;99.90
37340;DHT22;23223;51.006;7.610;2023-08-07T01:55:34;12.70;99.90
37340;DHT22;23223;51.006;7.610;2023-08-07T01:58:00;12.70;99.90
37340;DHT22;23223;51.006;7.610;2023-08-07T02:00:25;12.70;99.90
37340;DHT22;23223;51.006;7.610;2023-08-07T02:02:51;12.70;99.90
37340;DHT22;23223;51.006;7.610;2023-08-07T02:05:17;12.60;99.90
37340;DHT22;23223;51.006;7.610;2023-08-07T02:07:42;12.60;99.90
37340;DHT22;23223;51.006;7.610;2023-08-07T02:10:08;12.60;99.90
37340;DHT22;23223;51.006;7.610;2023-08-07T02:12:34;12.70;99.90
37340;DHT22;23223;51.006;7.610;2023-08-07T02:15:00;12.70;99.90
37340;DHT22;23223;51.006;7.610;2023-08-07T02:17:27;12.80;99.90
37340;DHT22;23223;51.006;7.610;2023-08-07T02:19:53;12.70;99.90
37340;DHT22;23223;51.006;7.610;2023-08-07T02:22:19;12.70;99.90
37340;DHT22;23223;51.006;7.610;2023-08-07T02:24:45;12.60;99.90
37340;DHT22;23223;51.006;7.610;2023-08-07T02:27:10;12.60;99.90
37340;DHT22;23223;51.006;7.610;2023-08-07T02:29:36;12.60;99.90
37340;DHT22;23223;51.006;7.610;2023-08-07T02:32:02;12.60;99.90
37340;DHT22;23223;51.006;7.610;2023-08-07T02:34:31;12.50;99.90
37340;DHT22;23223;51.006;7.610;2023-08-07T02:36:57;12.50;99.90
37340;DHT22;23223;51.006;7.610;2023-08-07T02:39:23;12.60;99.90
37340;DHT22;23223;51.006;7.610;2023-08-07T02:41:48;12.60;99.90
37340;DHT22;23223;51.006;7.610;2023-08-07T02:44:14;12.70;99.90
37340;DHT22;23223;51.006;7.610;2023-08-07T02:46:40;12.70;99.90
37340;DHT22;23223;51.006;7.610;2023-08-07T02:49:05;12.70;99.90
37340;DHT22;23223;51.006;7.610;2023-08-07T02:51:31;12.80;99.90
37340;DHT22;23223;51.006;7.610;2023-08-07T02:53:57;12.60;99.90
37340;DHT22;23223;51.006;7.610;2023-08-07T02:56:23;12.70;99.90
37340;DHT22;23223;51.006;7.610;2023-08-07T02:58:48;12.70;99.90
37340;DHT22;23223;51.006;7.610;2023-08-07T03:01:14;12.60;99.90
37340;DHT22;23223;51.006;7.610;2023-08-07T03:03:39;12.60;99.90
37340;DHT22;23223;51.006;7.610;2023-08-07T03:06:05;12.60;99.90
37340;DHT22;23223;51.006;7.610;2023-08-07T03:08:30;12.60;99.90
37340;DHT22;23223;51.006;7.610;2023-08-07T03:10:57;12.60;99.90
37340;DHT22;23223;51.006;7.610;2023-08-07T03:13:24;12.60;99.90
37340;DHT22;23223;51.006;7.610;2023-08-07T03:15:50;12.60;99.90
37340;DHT22;23223;51.006;7.610;2023-08-07T03:18:18;12.60;99.90
37340;DHT22;23223;51.006;7.610;2023-08-07T03:20:44;12.60;99.90
37340;DHT22;23223;51.006;7.610;2023-08-07T03:23:11;12.60;99.90
37340;DHT22;23223;51.006;7.610;2023-08-07T03:25:37;12.60;99.90
37340;DHT22;23223;51.006;7.610;2023-08-07T03:28:03;12.60;99.90
37340;DHT22;23223;51.006;7.610;2023-08-07T03:30:28;12.60;99.90
37340;DHT22;23223;51.006;7.610;2023-08-07T03:32:54;12.60;99.90
37340;DHT22;23223;51.006;7.610;2023-08-07T03:35:19;12.60;99.90
37340;DHT22;23223;51.006;7.610;2023-08-07T03:37:45;12.70;99.90
37340;DHT22;23223;51.006;7.610;2023-08-07T03:40:11;12.60;99.90
37340;DHT22;23223;51.006;7.610;2023-08-07T03:42:36;12.50;99.90
37340;DHT22;23223;51.006;7.610;2023-08-07T03:45:02;12.50;99.90
37340;DHT22;23223;51.006;7.610;2023-08-07T03:47:27;12.50;99.90
37340;DHT22;23223;51.006;7.610;2023-08-07T03:49:53;12.40;99.90
37340;DHT22;23223;51.006;7.610;2023-08-07T03:52:18;12.30;99.90
37340;DHT22;23223;51.006;7.610;2023-08-07T03:54:44;12.30;99.90
37340;DHT22;23223;51.006;7.610;2023-08-07T03:57:10;12.40;99.90
37340;DHT22;23223;51.006;7.610;2023-08-07T03:59:36;12.40;99.90
37340;DHT22;23223;51.006;7.610;2023-08-07T04:02:02;12.30;99.90
37340;DHT22;23223;51.006;7.610;2023-08-07T04:04:27;12.40;99.90
37340;DHT22;23223;51.006;7.610;2023-08-07T04:06:53;12.40;99.90
37340;DHT22;23223;51.006;7.610;2023-08-07T04:09:19;12.50;99.90
37340;DHT22;23223;51.006;7.610;2023-08-07T04:11:44;12.50;99.90
37340;DHT22;23223;51.006;7.610;2023-08-07T04:14:10;12.40;99.90
37340;DHT22;23223;51.006;7.610;2023-08-07T04:16:36;12.40;99.90
37340;DHT22;23223;51.006;7.610;2023-08-07T04:19:02;12.50;99.90
37340;DHT22;23223;51.006;7.610;2023-08-07T04:21:29;12.50;99.90
37340;DHT22;23223;51.006;7.610;2023-08-07T04:23:55;12.60;99.90
37340;DHT22;23223;51.006;7.610;2023-08-07T04:26:21;12.50;99.90
37340;DHT22;23223;51.006;7.610;2023-08-07T04:28:46;12.50;99.90
37340;DHT22;23223;51.006;7.610;2023-08-07T04:31:12;12.40;99.90
37340;DHT22;23223;51.006;7.610;2023-08-07T04:33:38;12.40;99.90
37340;DHT22;23223;51.006;7.610;2023-08-07T04:36:04;12.50;99.90
37340;DHT22;23223;51.006;7.610;2023-08-07T04:38:29;12.50;99.90
37340;DHT22;23223;51.006;7.610;2023-08-07T04:40:55;12.50;99.90
37340;DHT22;23223;51.006;7.610;2023-08-07T04:43:20;12.40;99.90
37340;DHT22;23223;51.006;7.610;2023-08-07T04:45:46;12.40;99.90
37340;DHT22;23223;51.006;7.610;2023-08-07T04:48:11;12.50;99.90
37340;DHT22;23223;51.006;7.610;2023-08-07T04:50:38;12.60;99.90
37340;DHT22;23223;51.006;7.610;2023-08-07T04:53:07;12.60;99.90
37340;DHT22;23223;51.006;7.610;2023-08-07T04:55:32;12.60;99.90
37340;DHT22;23223;51.006;7.610;2023-08-07T04:57:58;12.60;99.90
37340;DHT22;23223;51.006;7.610;2023-08-07T05:00:24;12.60;99.90
37340;DHT22;23223;51.006;7.610;2023-08-07T05:02:50;12.50;99.90
37340;DHT22;23223;51.006;7.610;2023-08-07T05:05:17;12.50;99.90
37340;DHT22;23223;51.006;7.610;2023-08-07T05:07:47;12.60;99.90
37340;DHT22;23223;51.006;7.610;2023-08-07T05:10:13;12.60;99.90
37340;DHT22;23223;51.006;7.610;2023-08-07T05:12:38;12.50;99.90
37340;DHT22;23223;51.006;7.610;2023-08-07T05:15:04;12.40;99.90
37340;DHT22;23223;51.006;7.610;2023-08-07T05:17:30;12.40;99.90
37340;DHT22;23223;51.006;7.610;2023-08-07T05:19:56;12.40;99.90
37340;DHT22;23223;51.006;7.610;2023-08-07T05:22:21;12.40;99.90
37340;DHT22;23223;51.006;7.610;2023-08-07T05:24:47;12.40;99.90
37340;DHT22;23223;51.006;7.610;2023-08-07T05:27:14;12.30;99.90
37340;DHT22;23223;51.006;7.610;2023-08-07T05:29:40;12.30;99.90
37340;DHT22;23223;51.006;7.610;2023-08-07T05:32:12;12.20;99.90
37340;DHT22;23223;51.006;7.610;2023-08-07T05:34:38;12.30;99.90
37340;DHT22;23223;51.006;7.610;2023-08-07T05:37:04;12.30;99.90
37340;DHT22;23223;51.006;7.610;2023-08-07T05:39:30;12.30;99.90
37340;DHT22;23223;51.006;7.610;2023-08-07T05:41:56;12.30;99.90
37340;DHT22;23223;51.006;7.610;2023-08-07T05:44:23;12.30;99.90
37340;DHT22;23223;51.006;7.610;2023-08-07T05:46:49;12.30;99.90
37340;DHT22;23223;51.006;7.610;2023-08-07T05:49:15;12.30;99.90
37340;DHT22;23223;51.006;7.610;2023-08-07T05:51:41;12.40;99.90
37340;DHT22;23223;51.006;7.610;2023-08-07T05:54:06;12.40;99.90
37340;DHT22;23223;51.006;7.610;2023-08-07T05:56:32;12.40;99.90
37340;DHT22;23223;51.006;7.610;2023-08-07T05:58:58;12.40;99.90
37340;DHT22;23223;51.006;7.610;2023-08-07T06:01:23;12.60;99.90
37340;DHT22;23223;51.006;7.610;2023-08-07T06:03:54;12.60;99.90
37340;DHT22;23223;51.006;7.610;2023-08-07T06:06:20;12.60;99.90
37340;DHT22;23223;51.006;7.610;2023-08-07T06:08:45;12.60;99.90
37340;DHT22;23223;51.006;7.610;2023-08-07T06:11:11;12.60;99.90
37340;DHT22;23223;51.006;7.610;2023-08-07T06:13:37;12.60;99.90
37340;DHT22;23223;51.006;7.610;2023-08-07T06:16:03;12.60;99.90
37340;DHT22;23223;51.006;7.610;2023-08-07T06:18:28;12.50;99.90
37340;DHT22;23223;51.006;7.610;2023-08-07T06:20:56;12.50;99.90
37340;DHT22;23223;51.006;7.610;2023-08-07T06:23:21;12.40;99.90
37340;DHT22;23223;51.006;7.610;2023-08-07T06:25:47;12.30;99.90
37340;DHT22;23223;51.006;7.610;2023-08-07T06:28:13;12.30;99.90
37340;DHT22;23223;51.006;7.610;2023-08-07T06:30:38;12.30;99.90
37340;DHT22;23223;51.006;7.610;2023-08-07T06:33:04;12.30;99.90
37340;DHT22;23223;51.006;7.610;2023-08-07T06:35:29;12.20;99.90
37340;DHT22;23223;51.006;7.610;2023-08-07T06:37:55;12.20;99.90
37340;DHT22;23223;51.006;7.610;2023-08-07T06:40:20;12.20;99.90
37340;DHT22;23223;51.006;7.610;2023-08-07T06:42:46;12.10;99.90
37340;DHT22;23223;51.006;7.610;2023-08-07T06:45:11;12.00;99.90
37340;DHT22;23223;51.006;7.610;2023-08-07T06:47:37;12.00;99.90
37340;DHT22;23223;51.006;7.610;2023-08-07T06:50:03;12.10;99.90
37340;DHT22;23223;51.006;7.610;2023-08-07T06:52:28;12.10;99.90
37340;DHT22;23223;51.006;7.610;2023-08-07T06:54:54;12.20;99.90
37340;DHT22;23223;51.006;7.610;2023-08-07T06:57:19;12.30;99.90
37340;DHT22;23223;51.006;7.610;2023-08-07T06:59:45;12.40;99.90
37340;DHT22;23223;51.006;7.610;2023-08-07T07:02:10;12.30;99.90
37340;DHT22;23223;51.006;7.610;2023-08-07T07:04:36;12.40;99.90
37340;DHT22;23223;51.006;7.610;2023-08-07T07:07:02;12.30;99.90
37340;DHT22;23223;51.006;7.610;2023-08-07T07:09:28;12.40;99.90
37340;DHT22;23223;51.006;7.610;2023-08-07T07:11:54;12.40;99.90
37340;DHT22;23223;51.006;7.610;2023-08-07T07:14:21;12.50;99.90
37340;DHT22;23223;51.006;7.610;2023-08-07T07:16:47;12.40;99.90
37340;DHT22;23223;51.006;7.610;2023-08-07T07:19:12;12.30;99.90
37340;DHT22;23223;51.006;7.610;2023-08-07T07:21:38;12.30;99.90
37340;DHT22;23223;51.006;7.610;2023-08-07T07:24:04;12.30;99.90
37340;DHT22;23223;51.006;7.610;2023-08-07T07:26:29;12.30;99.90
37340;DHT22;23223;51.006;7.610;2023-08-07T07:28:56;12.30;99.90
37340;DHT22;23223;51.006;7.610;2023-08-07T07:31:21;12.40;99.90
37340;DHT22;23223;51.006;7.610;2023-08-07T07:33:47;12.50;99.90
37340;DHT22;23223;51.006;7.610;2023-08-07T07:36:15;12.50;99.90
37340;DHT22;23223;51.006;7.610;2023-08-07T07:38:41;12.60;99.90
37340;DHT22;23223;51.006;7.610;2023-08-07T07:41:07;12.60;99.90
37340;DHT22;23223;51.006;7.610;2023-08-07T07:43:35;12.70;99.90
37340;DHT22;23223;51.006;7.610;2023-08-07T07:46:01;12.70;99.90
37340;DHT22;23223;51.006;7.610;2023-08-07T07:48:26;12.70;99.90
37340;DHT22;23223;51.006;7.610;2023-08-07T07:50:58;12.70;99.90
37340;DHT22;23223;51.006;7.610;2023-08-07T07:53:25;12.70;99.90
37340;DHT22;23223;51.006;7.610;2023-08-07T07:55:51;12.70;99.90
37340;DHT22;23223;51.006;7.610;2023-08-07T07:58:16;12.60;99.90
37340;DHT22;23223;51.006;7.610;2023-08-07T08:00:42;12.60;99.90
37340;DHT22;23223;51.006;7.610;2023-08-07T08:03:08;12.60;99.90
37340;DHT22;23223;51.006;7.610;2023-08-07T08:05:34;12.50;99.90
37340;DHT22;23223;51.006;7.610;2023-08-07T08:08:00;12.50;99.90
37340;DHT22;23223;51.006;7.610;2023-08-07T08:10:27;12.50;99.90
37340;DHT22;23223;51.006;7.610;2023-08-07T08:12:55;12.50;99.90
37340;DHT22;23223;51.006;7.610;2023-08-07T08:15:21;12.60;99.90
37340;DHT22;23223;51.006;7.610;2023-08-07T08:17:47;12.60;99.90
37340;DHT22;23223;51.006;7.610;2023-08-07T08:20:14;12.60;99.90
37340;DHT22;23223;51.006;7.610;2023-08-07T08:22:44;12.70;99.90
37340;DHT22;23223;51.006;7.610;2023-08-07T08:25:10;12.70;99.90
37340;DHT22;23223;51.006;7.610;2023-08-07T08:27:37;12.70;99.90
37340;DHT22;23223;51.006;7.610;2023-08-07T08:30:03;12.80;99.90
37340;DHT22;23223;51.006;7.610;2023-08-07T08:32:29;12.90;99.90
37340;DHT22;23223;51.006;7.610;2023-08-07T08:35:00;13.00;99.90
37340;DHT22;23223;51.006;7.610;2023-08-07T08:37:25;13.00;99.90
37340;DHT22;23223;51.006;7.610;2023-08-07T08:39:52;13.10;99.90
37340;DHT22;23223;51.006;7.610;2023-08-07T08:42:18;13.20;99.90
37340;DHT22;23223;51.006;7.610;2023-08-07T08:44:54;13.20;99.90
37340;DHT22;23223;51.006;7.610;2023-08-07T08:47:26;13.30;99.90
37340;DHT22;23223;51.006;7.610;2023-08-07T08:50:13;13.30;99.90
37340;DHT22;23223;51.006;7.610;2023-08-07T08:52:42;13.20;99.90
37340;DHT22;23223;51.006;7.610;2023-08-07T08:55:09;13.20;99.90
37340;DHT22;23223;51.006;7.610;2023-08-07T08:57:35;13.20;99.90
37340;DHT22;23223;51.006;7.610;2023-08-07T09:00:02;13.10;99.90
37340;DHT22;23223;51.006;7.610;2023-08-07T09:02:41;13.10;99.90
37340;DHT22;23223;51.006;7.610;2023-08-07T09:05:07;13.20;99.90
37340;DHT22;23223;51.006;7.610;2023-08-07T09:07:33;13.20;99.90
37340;DHT22;23223;51.006;7.610;2023-08-07T09:10:02;13.20;99.90
37340;DHT22;23223;51.006;7.610;2023-08-07T09:12:31;13.30;99.90
37340;DHT22;23223;51.006;7.610;2023-08-07T09:14:58;13.30;99.90
37340;DHT22;23223;51.006;7.610;2023-08-07T09:17:28;13.30;99.90
37340;DHT22;23223;51.006;7.610;2023-08-07T09:19:54;13.30;99.90
37340;DHT22;23223;51.006;7.610;2023-08-07T09:22:20;13.40;99.90
37340;DHT22;23223;51.006;7.610;2023-08-07T09:24:46;13.40;99.90
37340;DHT22;23223;51.006;7.610;2023-08-07T09:27:12;13.40;99.90
37340;DHT22;23223;51.006;7.610;2023-08-07T09:29:40;13.50;99.90
37340;DHT22;23223;51.006;7.610;2023-08-07T09:32:11;13.50;99.90
37340;DHT22;23223;51.006;7.610;2023-08-07T09:34:39;13.60;99.90
37340;DHT22;23223;51.006;7.610;2023-08-07T09:37:05;13.50;99.90
37340;DHT22;23223;51.006;7.610;2023-08-07T09:39:31;13.60;99.90
37340;DHT22;23223;51.006;7.610;2023-08-07T09:41:56;13.50;99.90
37340;DHT22;23223;51.006;7.610;2023-08-07T09:44:22;13.50;99.90
37340;DHT22;23223;51.006;7.610;2023-08-07T09:46:47;13.60;99.90
37340;DHT22;23223;51.006;7.610;2023-08-07T09:49:13;13.60;99.90
37340;DHT22;23223;51.006;7.610;2023-08-07T09:51:46;13.50;99.90
37340;DHT22;23223;51.006;7.610;2023-08-07T09:54:12;13.50;99.90
37340;DHT22;23223;51.006;7.610;2023-08-07T09:56:41;13.60;99.90
37340;DHT22;23223;51.006;7.610;2023-08-07T09:59:07;13.80;99.90
37340;DHT22;23223;51.006;7.610;2023-08-07T10:01:35;13.90;99.90
37340;DHT22;23223;51.006;7.610;2023-08-07T10:04:01;13.90;99.90
37340;DHT22;23223;51.006;7.610;2023-08-07T10:06:27;14.00;99.90
37340;DHT22;23223;51.006;7.610;2023-08-07T10:08:54;14.10;99.90
37340;DHT22;23223;51.006;7.610;2023-08-07T10:11:20;14.20;99.90
37340;DHT22;23223;51.006;7.610;2023-08-07T10:13:47;14.30;99.90
37340;DHT22;23223;51.006;7.610;2023-08-07T10:16:13;14.40;99.90
37340;DHT22;23223;51.006;7.610;2023-08-07T10:18:39;14.50;99.90
37340;DHT22;23223;51.006;7.610;2023-08-07T10:21:06;14.80;99.90
37340;DHT22;23223;51.006;7.610;2023-08-07T10:23:35;15.00;99.90
37340;DHT22;23223;51.006;7.610;2023-08-07T10:26:04;14.90;99.90
37340;DHT22;23223;51.006;7.610;2023-08-07T10:28:32;14.80;99.90
37340;DHT22;23223;51.006;7.610;2023-08-07T10:31:03;14.50;99.90
37340;DHT22;23223;51.006;7.610;2023-08-07T10:33:30;14.50;99.90
37340;DHT22;23223;51.006;7.610;2023-08-07T10:35:57;14.40;99.90
37340;DHT22;23223;51.006;7.610;2023-08-07T10:38:25;14.20;99.90
37340;DHT22;23223;51.006;7.610;2023-08-07T10:41:01;14.10;99.90
37340;DHT22;23223;51.006;7.610;2023-08-07T10:43:27;14.00;99.90
37340;DHT22;23223;51.006;7.610;2023-08-07T10:45:54;14.00;99.90
37340;DHT22;23223;51.006;7.610;2023-08-07T10:48:27;14.00;99.90
37340;DHT22;23223;51.006;7.610;2023-08-07T10:50:57;14.00;99.90
37340;DHT22;23223;51.006;7.610;2023-08-07T10:53:42;14.00;99.90
37340;DHT22;23223;51.006;7.610;2023-08-07T10:58:54;14.00;99.90
37340;DHT22;23223;51.006;7.610;2023-08-07T11:04:00;14.10;99.90
37340;DHT22;23223;51.006;7.610;2023-08-07T11:06:30;14.30;99.90
37340;DHT22;23223;51.006;7.610;2023-08-07T11:08:59;14.50;99.90
37340;DHT22;23223;51.006;7.610;2023-08-07T11:11:26;15.00;99.90
37340;DHT22;23223;51.006;7.610;2023-08-07T11:13:52;15.30;99.90
37340;DHT22;23223;51.006;7.610;2023-08-07T11:16:18;15.50;99.90
37340;DHT22;23223;51.006;7.610;2023-08-07T11:18:47;15.40;99.90
37340;DHT22;23223;51.006;7.610;2023-08-07T11:21:13;15.30;99.90
37340;DHT22;23223;51.006;7.610;2023-08-07T11:23:39;15.40;99.90
37340;DHT22;23223;51.006;7.610;2023-08-07T11:26:05;15.50;99.90
37340;DHT22;23223;51.006;7.610;2023-08-07T11:28:31;15.80;99.90
37340;DHT22;23223;51.006;7.610;2023-08-07T11:30:57;15.80;99.90
37340;DHT22;23223;51.006;7.610;2023-08-07T11:33:27;15.80;99.90
37340;DHT22;23223;51.006;7.610;2023-08-07T11:35:53;15.90;99.90
37340;DHT22;23223;51.006;7.610;2023-08-07T11:38:34;15.90;99.90
37340;DHT22;23223;51.006;7.610;2023-08-07T11:41:04;15.80;99.90
37340;DHT22;23223;51.006;7.610;2023-08-07T11:43:34;15.70;99.90
37340;DHT22;23223;51.006;7.610;2023-08-07T11:46:05;15.60;99.90
37340;DHT22;23223;51.006;7.610;2023-08-07T11:48:33;15.60;99.90
37340;DHT22;23223;51.006;7.610;2023-08-07T11:50:59;15.80;99.90
37340;DHT22;23223;51.006;7.610;2023-08-07T11:53:27;16.20;99.90
37340;DHT22;23223;51.006;7.610;2023-08-07T11:56:00;16.60;99.90
37340;DHT22;23223;51.006;7.610;2023-08-07T11:58:37;16.70;99.90
37340;DHT22;23223;51.006;7.610;2023-08-07T12:01:10;16.80;99.90
37340;DHT22;23223;51.006;7.610;2023-08-07T12:03:41;16.70;99.90
37340;DHT22;23223;51.006;7.610;2023-08-07T12:06:08;16.40;99.90
37340;DHT22;23223;51.006;7.610;2023-08-07T12:08:38;16.20;99.90
37340;DHT22;23223;51.006;7.610;2023-08-07T12:11:06;15.80;99.90
37340;DHT22;23223;51.006;7.610;2023-08-07T12:13:32;15.60;99.90
37340;DHT22;23223;51.006;7.610;2023-08-07T12:16:00;15.40;99.90
37340;DHT22;23223;51.006;7.610;2023-08-07T12:18:27;15.30;99.90
37340;DHT22;23223;51.006;7.610;2023-08-07T12:20:57;15.30;99.90
37340;DHT22;23223;51.006;7.610;2023-08-07T12:23:23;15.70;99.90
37340;DHT22;23223;51.006;7.610;2023-08-07T12:25:49;16.10;99.90
37340;DHT22;23223;51.006;7.610;2023-08-07T12:28:15;16.80;99.90
37340;DHT22;23223;51.006;7.610;2023-08-07T12:30:45;17.40;99.90
37340;DHT22;23223;51.006;7.610;2023-08-07T12:33:11;17.80;99.90
37340;DHT22;23223;51.006;7.610;2023-08-07T12:35:36;18.00;99.90
37340;DHT22;23223;51.006;7.610;2023-08-07T12:38:02;18.10;99.90
37340;DHT22;23223;51.006;7.610;2023-08-07T12:40:31;18.40;99.90
37340;DHT22;23223;51.006;7.610;2023-08-07T12:42:58;18.30;99.90
37340;DHT22;23223;51.006;7.610;2023-08-07T12:45:23;18.50;99.90
37340;DHT22;23223;51.006;7.610;2023-08-07T12:47:49;18.70;99.90
37340;DHT22;23223;51.006;7.610;2023-08-07T12:50:15;18.80;99.90
37340;DHT22;23223;51.006;7.610;2023-08-07T12:52:40;19.00;99.90
37340;DHT22;23223;51.006;7.610;2023-08-07T12:55:06;19.10;99.90
37340;DHT22;23223;51.006;7.610;2023-08-07T12:57:33;19.10;99.90
37340;DHT22;23223;51.006;7.610;2023-08-07T12:59:58;19.20;99.90
37340;DHT22;23223;51.006;7.610;2023-08-07T13:02:24;19.30;99.90
37340;DHT22;23223;51.006;7.610;2023-08-07T13:04:49;19.10;99.90
37340;DHT22;23223;51.006;7.610;2023-08-07T13:07:16;19.00;99.90
37340;DHT22;23223;51.006;7.610;2023-08-07T13:09:42;19.00;99.90
37340;DHT22;23223;51.006;7.610;2023-08-07T13:12:07;19.20;99.90
37340;DHT22;23223;51.006;7.610;2023-08-07T13:14:33;19.60;99.90
37340;DHT22;23223;51.006;7.610;2023-08-07T13:16:59;19.90;99.90
37340;DHT22;23223;51.006;7.610;2023-08-07T13:19:24;20.00;99.90
37340;DHT22;23223;51.006;7.610;2023-08-07T13:21:50;19.90;99.90
37340;DHT22;23223;51.006;7.610;2023-08-07T13:24:15;20.00;99.90
37340;DHT22;23223;51.006;7.610;2023-08-07T13:26:41;20.30;99.90
37340;DHT22;23223;51.006;7.610;2023-08-07T13:29:13;20.50;99.90
37340;DHT22;23223;51.006;7.610;2023-08-07T13:31:39;20.30;99.90
37340;DHT22;23223;51.006;7.610;2023-08-07T13:34:07;20.40;99.90
37340;DHT22;23223;51.006;7.610;2023-08-07T13:36:37;20.50;99.90
37340;DHT22;23223;51.006;7.610;2023-08-07T13:39:04;20.50;99.90
37340;DHT22;23223;51.006;7.610;2023-08-07T13:41:30;20.60;99.90
37340;DHT22;23223;51.006;7.610;2023-08-07T13:43:55;20.70;99.90
37340;DHT22;23223;51.006;7.610;2023-08-07T13:46:21;20.80;99.90
37340;DHT22;23223;51.006;7.610;2023-08-07T13:48:47;20.70;99.90
37340;DHT22;23223;51.006;7.610;2023-08-07T13:51:14;20.50;99.90
37340;DHT22;23223;51.006;7.610;2023-08-07T13:53:41;20.20;99.90
37340;DHT22;23223;51.006;7.610;2023-08-07T13:56:06;20.00;99.90
37340;DHT22;23223;51.006;7.610;2023-08-07T13:58:34;19.80;99.90
37340;DHT22;23223;51.006;7.610;2023-08-07T14:01:00;19.70;99.90
37340;DHT22;23223;51.006;7.610;2023-08-07T14:03:25;19.80;99.90
37340;DHT22;23223;51.006;7.610;2023-08-07T14:05:51;19.80;99.90
37340;DHT22;23223;51.006;7.610;2023-08-07T14:08:17;20.10;99.90
37340;DHT22;23223;51.006;7.610;2023-08-07T14:10:42;20.60;99.90
37340;DHT22;23223;51.006;7.610;2023-08-07T14:13:08;21.10;99.90
37340;DHT22;23223;51.006;7.610;2023-08-07T14:15:35;21.50;99.90
37340;DHT22;23223;51.006;7.610;2023-08-07T14:18:01;21.30;99.90
37340;DHT22;23223;51.006;7.610;2023-08-07T14:20:27;21.10;99.90
37340;DHT22;23223;51.006;7.610;2023-08-07T14:22:52;21.00;99.90
37340;DHT22;23223;51.006;7.610;2023-08-07T14:25:18;21.10;99.90
37340;DHT22;23223;51.006;7.610;2023-08-07T14:27:44;21.30;99.90
37340;DHT22;23223;51.006;7.610;2023-08-07T14:30:10;21.40;99.90
37340;DHT22;23223;51.006;7.610;2023-08-07T14:32:35;21.30;99.90
37340;DHT22;23223;51.006;7.610;2023-08-07T14:35:01;21.40;99.90
37340;DHT22;23223;51.006;7.610;2023-08-07T14:37:26;21.30;99.90
37340;DHT22;23223;51.006;7.610;2023-08-07T14:39:52;21.30;99.90
37340;DHT22;23223;51.006;7.610;2023-08-07T14:42:18;21.20;99.90
37340;DHT22;23223;51.006;7.610;2023-08-07T14:44:43;20.90;99.90
37340;DHT22;23223;51.006;7.610;2023-08-07T14:47:09;20.90;99.90
37340;DHT22;23223;51.006;7.610;2023-08-07T14:49:34;21.00;99.90
37340;DHT22;23223;51.006;7.610;2023-08-07T14:52:00;21.00;99.90
37340;DHT22;23223;51.006;7.610;2023-08-07T14:54:25;20.80;99.90
37340;DHT22;23223;51.006;7.610;2023-08-07T14:56:51;20.70;99.90
37340;DHT22;23223;51.006;7.610;2023-08-07T14:59:17;20.70;99.90
37340;DHT22;23223;51.006;7.610;2023-08-07T15:01:42;20.70;99.90
37340;DHT22;23223;51.006;7.610;2023-08-07T15:04:08;20.90;99.90
37340;DHT22;23223;51.006;7.610;2023-08-07T15:06:35;21.20;99.90
37340;DHT22;23223;51.006;7.610;2023-08-07T15:09:00;21.20;99.90
37340;DHT22;23223;51.006;7.610;2023-08-07T15:11:26;21.30;99.90
37340;DHT22;23223;51.006;7.610;2023-08-07T15:13:51;21.40;99.90
37340;DHT22;23223;51.006;7.610;2023-08-07T15:16:17;21.30;99.90
37340;DHT22;23223;51.006;7.610;2023-08-07T15:18:42;21.20;99.90
37340;DHT22;23223;51.006;7.610;2023-08-07T15:21:08;21.20;99.90
37340;DHT22;23223;51.006;7.610;2023-08-07T15:23:33;21.30;99.90
37340;DHT22;23223;51.006;7.610;2023-08-07T15:25:59;21.30;99.90
37340;DHT22;23223;51.006;7.610;2023-08-07T15:28:25;21.10;99.90
37340;DHT22;23223;51.006;7.610;2023-08-07T15:30:51;21.20;99.90
37340;DHT22;23223;51.006;7.610;2023-08-07T15:33:17;21.20;99.90